sensor_id;sensor_type;location;lat;lon;timestamp;temperature;humidity
59961;DHT22;55902;-37.980;-63.602;2023-03-25T00:01:51;20.50;99.90
59961;DHT22;55902;-37.980;-63.602;2023-03-25T00:04:18;20.50;99.90
59961;DHT22;55902;-37.980;-63.602;2023-03-25T00:06:45;20.50;99.90
59961;DHT22;55902;-37.980;-63.602;2023-03-25T00:09:12;20.50;99.90
59961;DHT22;55902;-37.980;-63.602;2023-03-25T00:11:39;20.40;99.90
59961;DHT22;55902;-37.980;-63.602;2023-03-25T00:14:06;20.40;99.90
59961;DHT22;55902;-37.980;-63.602;2023-03-25T00:16:33;20.40;99.90
59961;DHT22;55902;-37.980;-63.602;2023-03-25T00:19:00;20.30;99.90
59961;DHT22;55902;-37.980;-63.602;2023-03-25T00:21:27;20.30;99.90
59961;DHT22;55902;-37.980;-63.602;2023-03-25T00:23:54;20.30;99.90
59961;DHT22;55902;-37.980;-63.602;2023-03-25T00:26:21;20.20;99.90
59961;DHT22;55902;-37.980;-63.602;2023-03-25T00:28:48;20.20;99.90
59961;DHT22;55902;-37.980;-63.602;2023-03-25T00:31:15;20.20;99.90
59961;DHT22;55902;-37.980;-63.602;2023-03-25T00:33:42;20.10;99.90
59961;DHT22;55902;-37.980;-63.602;2023-03-25T00:36:10;20.10;99.90
59961;DHT22;55902;-37.980;-63.602;2023-03-25T00:38:39;20.10;99.90
59961;DHT22;55902;-37.980;-63.602;2023-03-25T00:41:19;20.10;99.90
59961;DHT22;55902;-37.980;-63.602;2023-03-25T00:43:55;20.00;99.90
59961;DHT22;55902;-37.980;-63.602;2023-03-25T00:46:24;19.90;99.90
59961;DHT22;55902;-37.980;-63.602;2023-03-25T00:48:53;19.90;99.90
59961;DHT22;55902;-37.980;-63.602;2023-03-25T00:51:21;19.80;99.90
59961;DHT22;55902;-37.980;-63.602;2023-03-25T00:53:56;19.80;99.90
59961;DHT22;55902;-37.980;-63.602;2023-03-25T00:56:25;19.70;99.90
59961;DHT22;55902;-37.980;-63.602;2023-03-25T00:58:53;19.70;99.90
59961;DHT22;55902;-37.980;-63.602;2023-03-25T01:01:23;19.70;99.90
59961;DHT22;55902;-37.980;-63.602;2023-03-25T01:03:55;19.70;99.90
59961;DHT22;55902;-37.980;-63.602;2023-03-25T01:06:34;19.70;99.90
59961;DHT22;55902;-37.980;-63.602;2023-03-25T01:09:04;19.60;99.90
59961;DHT22;55902;-37.980;-63.602;2023-03-25T01:11:32;19.60;99.90
59961;DHT22;55902;-37.980;-63.602;2023-03-25T01:14:05;19.60;99.90
59961;DHT22;55902;-37.980;-63.602;2023-03-25T01:16:33;19.50;99.90
59961;DHT22;55902;-37.980;-63.602;2023-03-25T01:19:00;19.50;99.90
59961;DHT22;55902;-37.980;-63.602;2023-03-25T01:21:27;19.50;99.90
59961;DHT22;55902;-37.980;-63.602;2023-03-25T01:23:54;19.40;99.90
59961;DHT22;55902;-37.980;-63.602;2023-03-25T01:26:21;19.40;99.90
59961;DHT22;55902;-37.980;-63.602;2023-03-25T01:28:48;19.30;99.90
59961;DHT22;55902;-37.980;-63.602;2023-03-25T01:31:15;19.30;99.90
59961;DHT22;55902;-37.980;-63.602;2023-03-25T01:33:42;19.30;99.90
59961;DHT22;55902;-37.980;-63.602;2023-03-25T01:36:10;19.30;99.90
59961;DHT22;55902;-37.980;-63.602;2023-03-25T01:38:38;19.30;99.90
59961;DHT22;55902;-37.980;-63.602;2023-03-25T01:41:06;19.30;99.90
59961;DHT22;55902;-37.980;-63.602;2023-03-25T01:43:34;19.30;99.90
59961;DHT22;55902;-37.980;-63.602;2023-03-25T01:46:01;19.30;99.90
59961;DHT22;55902;-37.980;-63.602;2023-03-25T01:48:35;19.30;99.90
59961;DHT22;55902;-37.980;-63.602;2023-03-25T01:51:17;19.30;99.90
59961;DHT22;55902;-37.980;-63.602;2023-03-25T01:53:46;19.30;99.90
59961;DHT22;55902;-37.980;-63.602;2023-03-25T01:56:17;19.30;99.90
59961;DHT22;55902;-37.980;-63.602;2023-03-25T01:58:45;19.30;99.90
59961;DHT22;55902;-37.980;-63.602;2023-03-25T02:01:13;19.30;99.90
59961;DHT22;55902;-37.980;-63.602;2023-03-25T02:03:43;19.20;99.90
59961;DHT22;55902;-37.980;-63.602;2023-03-25T02:09:05;19.20;99.90
59961;DHT22;55902;-37.980;-63.602;2023-03-25T02:11:34;19.10;99.90
59961;DHT22;55902;-37.980;-63.602;2023-03-25T02:14:23;19.10;99.90
59961;DHT22;55902;-37.980;-63.602;2023-03-25T02:45:07;18.80;99.90
59961;DHT22;55902;-37.980;-63.602;2023-03-25T02:47:46;18.70;99.90
59961;DHT22;55902;-37.980;-63.602;2023-03-25T02:50:42;18.70;99.90
59961;DHT22;55902;-37.980;-63.602;2023-03-25T02:53:15;18.60;99.90
59961;DHT22;55902;-37.980;-63.602;2023-03-25T02:55:45;18.60;99.90
59961;DHT22;55902;-37.980;-63.602;2023-03-25T02:58:16;18.50;99.90
59961;DHT22;55902;-37.980;-63.602;2023-03-25T03:00:45;18.50;99.90
59961;DHT22;55902;-37.980;-63.602;2023-03-25T03:03:14;18.50;99.90
59961;DHT22;55902;-37.980;-63.602;2023-03-25T03:05:45;18.50;99.90
59961;DHT22;55902;-37.980;-63.602;2023-03-25T03:17:23;18.40;99.90
59961;DHT22;55902;-37.980;-63.602;2023-03-25T03:20:07;18.30;99.90
59961;DHT22;55902;-37.980;-63.602;2023-03-25T03:22:47;18.30;99.90
59961;DHT22;55902;-37.980;-63.602;2023-03-25T03:25:27;18.30;99.90
59961;DHT22;55902;-37.980;-63.602;2023-03-25T03:30:47;18.30;99.90
59961;DHT22;55902;-37.980;-63.602;2023-03-25T03:33:31;18.40;99.90
59961;DHT22;55902;-37.980;-63.602;2023-03-25T03:36:10;18.40;99.90
59961;DHT22;55902;-37.980;-63.602;2023-03-25T03:38:45;18.50;99.90
59961;DHT22;55902;-37.980;-63.602;2023-03-25T03:41:18;18.50;99.90
59961;DHT22;55902;-37.980;-63.602;2023-03-25T03:43:58;18.50;99.90
59961;DHT22;55902;-37.980;-63.602;2023-03-25T03:46:35;18.50;99.90
59961;DHT22;55902;-37.980;-63.602;2023-03-25T03:49:08;18.60;99.90
59961;DHT22;55902;-37.980;-63.602;2023-03-25T03:52:10;18.70;99.90
59961;DHT22;55902;-37.980;-63.602;2023-03-25T03:55:01;18.80;99.90
59961;DHT22;55902;-37.980;-63.602;2023-03-25T03:57:34;18.80;99.90
59961;DHT22;55902;-37.980;-63.602;2023-03-25T04:00:06;18.90;99.90
59961;DHT22;55902;-37.980;-63.602;2023-03-25T04:12:52;18.90;99.90
59961;DHT22;55902;-37.980;-63.602;2023-03-25T04:15:20;18.90;99.90
59961;DHT22;55902;-37.980;-63.602;2023-03-25T04:17:47;18.90;99.90
59961;DHT22;55902;-37.980;-63.602;2023-03-25T04:20:17;18.90;99.90
59961;DHT22;55902;-37.980;-63.602;2023-03-25T04:22:49;18.90;99.90
59961;DHT22;55902;-37.980;-63.602;2023-03-25T04:25:17;18.80;99.90
59961;DHT22;55902;-37.980;-63.602;2023-03-25T04:27:47;18.80;99.90
59961;DHT22;55902;-37.980;-63.602;2023-03-25T04:30:14;18.80;99.90
59961;DHT22;55902;-37.980;-63.602;2023-03-25T04:32:45;18.80;99.90
59961;DHT22;55902;-37.980;-63.602;2023-03-25T04:35:16;18.80;99.90
59961;DHT22;55902;-37.980;-63.602;2023-03-25T04:37:45;18.80;99.90
59961;DHT22;55902;-37.980;-63.602;2023-03-25T04:40:15;18.90;99.90
59961;DHT22;55902;-37.980;-63.602;2023-03-25T04:42:47;18.90;99.90
59961;DHT22;55902;-37.980;-63.602;2023-03-25T04:45:14;18.80;99.90
59961;DHT22;55902;-37.980;-63.602;2023-03-25T04:47:46;18.90;99.90
59961;DHT22;55902;-37.980;-63.602;2023-03-25T04:50:18;18.90;99.90
59961;DHT22;55902;-37.980;-63.602;2023-03-25T04:52:45;18.90;99.90
59961;DHT22;55902;-37.980;-63.602;2023-03-25T04:55:13;18.90;99.90
59961;DHT22;55902;-37.980;-63.602;2023-03-25T04:57:46;18.90;99.90
59961;DHT22;55902;-37.980;-63.602;2023-03-25T05:00:16;18.90;99.90
59961;DHT22;55902;-37.980;-63.602;2023-03-25T05:02:48;18.90;99.90
59961;DHT22;55902;-37.980;-63.602;2023-03-25T05:05:18;18.90;99.90
59961;DHT22;55902;-37.980;-63.602;2023-03-25T05:07:52;18.80;99.90
59961;DHT22;55902;-37.980;-63.602;2023-03-25T05:10:20;18.80;99.90
59961;DHT22;55902;-37.980;-63.602;2023-03-25T05:12:47;18.80;99.90
59961;DHT22;55902;-37.980;-63.602;2023-03-25T05:15:15;18.70;99.90
59961;DHT22;55902;-37.980;-63.602;2023-03-25T05:17:45;18.70;99.90
59961;DHT22;55902;-37.980;-63.602;2023-03-25T05:20:12;18.60;99.90
59961;DHT22;55902;-37.980;-63.602;2023-03-25T05:22:40;18.60;99.90
59961;DHT22;55902;-37.980;-63.602;2023-03-25T05:25:10;18.60;99.90
59961;DHT22;55902;-37.980;-63.602;2023-03-25T05:27:37;18.60;99.90
59961;DHT22;55902;-37.980;-63.602;2023-03-25T05:30:05;18.60;99.90
59961;DHT22;55902;-37.980;-63.602;2023-03-25T05:32:33;18.60;99.90
59961;DHT22;55902;-37.980;-63.602;2023-03-25T05:35:00;18.60;99.90
59961;DHT22;55902;-37.980;-63.602;2023-03-25T05:37:28;18.60;99.90
59961;DHT22;55902;-37.980;-63.602;2023-03-25T05:39:56;18.50;99.90
59961;DHT22;55902;-37.980;-63.602;2023-03-25T05:42:23;18.50;99.90
59961;DHT22;55902;-37.980;-63.602;2023-03-25T05:55:35;18.40;99.90
59961;DHT22;55902;-37.980;-63.602;2023-03-25T05:58:03;18.40;99.90
59961;DHT22;55902;-37.980;-63.602;2023-03-25T06:00:30;18.40;99.90
59961;DHT22;55902;-37.980;-63.602;2023-03-25T06:02:57;18.30;99.90
59961;DHT22;55902;-37.980;-63.602;2023-03-25T06:05:24;18.30;99.90
59961;DHT22;55902;-37.980;-63.602;2023-03-25T06:07:52;18.30;99.90
59961;DHT22;55902;-37.980;-63.602;2023-03-25T06:10:21;18.30;99.90
59961;DHT22;55902;-37.980;-63.602;2023-03-25T06:12:48;18.30;99.90
59961;DHT22;55902;-37.980;-63.602;2023-03-25T06:15:18;18.30;99.90
59961;DHT22;55902;-37.980;-63.602;2023-03-25T06:17:56;18.30;99.90
59961;DHT22;55902;-37.980;-63.602;2023-03-25T06:20:23;18.20;99.90
59961;DHT22;55902;-37.980;-63.602;2023-03-25T06:22:51;18.20;99.90
59961;DHT22;55902;-37.980;-63.602;2023-03-25T06:25:19;18.10;99.90
59961;DHT22;55902;-37.980;-63.602;2023-03-25T06:27:48;18.10;99.90
59961;DHT22;55902;-37.980;-63.602;2023-03-25T06:30:19;18.00;99.90
59961;DHT22;55902;-37.980;-63.602;2023-03-25T06:32:47;18.00;99.90
59961;DHT22;55902;-37.980;-63.602;2023-03-25T06:35:17;18.00;99.90
59961;DHT22;55902;-37.980;-63.602;2023-03-25T06:37:48;18.00;99.90
59961;DHT22;55902;-37.980;-63.602;2023-03-25T06:40:16;18.00;99.90
59961;DHT22;55902;-37.980;-63.602;2023-03-25T06:42:43;17.90;99.90
59961;DHT22;55902;-37.980;-63.602;2023-03-25T06:45:10;17.90;99.90
59961;DHT22;55902;-37.980;-63.602;2023-03-25T06:47:38;17.90;99.90
59961;DHT22;55902;-37.980;-63.602;2023-03-25T06:50:05;17.90;99.90
59961;DHT22;55902;-37.980;-63.602;2023-03-25T06:52:33;17.80;99.90
59961;DHT22;55902;-37.980;-63.602;2023-03-25T06:54:59;17.80;99.90
59961;DHT22;55902;-37.980;-63.602;2023-03-25T06:57:26;17.80;99.90
59961;DHT22;55902;-37.980;-63.602;2023-03-25T06:59:53;17.70;99.90
59961;DHT22;55902;-37.980;-63.602;2023-03-25T07:02:20;17.70;99.90
59961;DHT22;55902;-37.980;-63.602;2023-03-25T07:14:56;17.80;99.90
59961;DHT22;55902;-37.980;-63.602;2023-03-25T07:17:24;17.80;99.90
59961;DHT22;55902;-37.980;-63.602;2023-03-25T07:19:51;17.90;99.90
59961;DHT22;55902;-37.980;-63.602;2023-03-25T07:22:18;17.90;99.90
59961;DHT22;55902;-37.980;-63.602;2023-03-25T07:24:48;17.90;99.90
59961;DHT22;55902;-37.980;-63.602;2023-03-25T07:27:17;18.00;99.90
59961;DHT22;55902;-37.980;-63.602;2023-03-25T07:29:44;18.00;99.90
59961;DHT22;55902;-37.980;-63.602;2023-03-25T07:32:11;18.10;99.90
59961;DHT22;55902;-37.980;-63.602;2023-03-25T07:34:38;18.10;99.90
59961;DHT22;55902;-37.980;-63.602;2023-03-25T07:37:05;18.10;99.90
59961;DHT22;55902;-37.980;-63.602;2023-03-25T07:39:33;18.20;99.90
59961;DHT22;55902;-37.980;-63.602;2023-03-25T07:42:01;18.20;99.90
59961;DHT22;55902;-37.980;-63.602;2023-03-25T07:44:27;18.30;99.90
59961;DHT22;55902;-37.980;-63.602;2023-03-25T07:46:54;18.30;99.90
59961;DHT22;55902;-37.980;-63.602;2023-03-25T07:49:21;18.30;99.90
59961;DHT22;55902;-37.980;-63.602;2023-03-25T07:51:48;18.40;99.90
59961;DHT22;55902;-37.980;-63.602;2023-03-25T07:54:15;18.40;99.90
59961;DHT22;55902;-37.980;-63.602;2023-03-25T07:56:42;18.40;99.90
59961;DHT22;55902;-37.980;-63.602;2023-03-25T07:59:09;18.50;99.90
59961;DHT22;55902;-37.980;-63.602;2023-03-25T08:01:36;18.50;99.90
59961;DHT22;55902;-37.980;-63.602;2023-03-25T08:04:03;18.50;99.90
59961;DHT22;55902;-37.980;-63.602;2023-03-25T08:10:02;18.50;99.90
59961;DHT22;55902;-37.980;-63.602;2023-03-25T08:12:29;18.60;99.90
59961;DHT22;55902;-37.980;-63.602;2023-03-25T08:14:56;18.60;99.90
59961;DHT22;55902;-37.980;-63.602;2023-03-25T08:17:23;18.60;99.90
59961;DHT22;55902;-37.980;-63.602;2023-03-25T08:19:50;18.60;99.90
59961;DHT22;55902;-37.980;-63.602;2023-03-25T08:22:16;18.70;99.90
59961;DHT22;55902;-37.980;-63.602;2023-03-25T08:24:43;18.70;99.90
59961;DHT22;55902;-37.980;-63.602;2023-03-25T08:27:10;18.70;99.90
59961;DHT22;55902;-37.980;-63.602;2023-03-25T08:29:37;18.70;99.90
59961;DHT22;55902;-37.980;-63.602;2023-03-25T08:32:05;18.80;99.90
59961;DHT22;55902;-37.980;-63.602;2023-03-25T08:34:32;18.80;99.90
59961;DHT22;55902;-37.980;-63.602;2023-03-25T08:37:06;18.90;99.90
59961;DHT22;55902;-37.980;-63.602;2023-03-25T08:39:33;18.90;99.90
59961;DHT22;55902;-37.980;-63.602;2023-03-25T08:42:06;18.90;99.90
59961;DHT22;55902;-37.980;-63.602;2023-03-25T08:44:34;18.90;99.90
59961;DHT22;55902;-37.980;-63.602;2023-03-25T08:47:01;18.80;99.90
59961;DHT22;55902;-37.980;-63.602;2023-03-25T08:49:28;18.80;99.90
59961;DHT22;55902;-37.980;-63.602;2023-03-25T08:51:57;18.70;99.90
59961;DHT22;55902;-37.980;-63.602;2023-03-25T08:54:26;18.80;99.90
59961;DHT22;55902;-37.980;-63.602;2023-03-25T08:56:53;18.80;99.90
59961;DHT22;55902;-37.980;-63.602;2023-03-25T08:59:20;18.80;99.90
59961;DHT22;55902;-37.980;-63.602;2023-03-25T09:11:53;18.80;99.90
59961;DHT22;55902;-37.980;-63.602;2023-03-25T09:14:20;18.70;99.90
59961;DHT22;55902;-37.980;-63.602;2023-03-25T09:16:47;18.60;99.90
59961;DHT22;55902;-37.980;-63.602;2023-03-25T09:19:14;18.60;99.90
59961;DHT22;55902;-37.980;-63.602;2023-03-25T09:21:41;18.50;99.90
59961;DHT22;55902;-37.980;-63.602;2023-03-25T09:24:08;18.50;99.90
59961;DHT22;55902;-37.980;-63.602;2023-03-25T09:26:36;18.40;99.90
59961;DHT22;55902;-37.980;-63.602;2023-03-25T09:29:03;18.30;99.90
59961;DHT22;55902;-37.980;-63.602;2023-03-25T09:31:30;18.30;99.90
59961;DHT22;55902;-37.980;-63.602;2023-03-25T09:33:58;18.20;99.90
59961;DHT22;55902;-37.980;-63.602;2023-03-25T09:36:25;18.20;99.90
59961;DHT22;55902;-37.980;-63.602;2023-03-25T09:38:52;18.10;99.90
59961;DHT22;55902;-37.980;-63.602;2023-03-25T09:44:20;18.00;99.90
59961;DHT22;55902;-37.980;-63.602;2023-03-25T09:46:48;18.00;99.90
59961;DHT22;55902;-37.980;-63.602;2023-03-25T09:49:22;17.90;99.90
59961;DHT22;55902;-37.980;-63.602;2023-03-25T09:51:51;17.90;99.90
59961;DHT22;55902;-37.980;-63.602;2023-03-25T09:54:28;18.00;99.90
59961;DHT22;55902;-37.980;-63.602;2023-03-25T09:57:07;18.00;99.90
59961;DHT22;55902;-37.980;-63.602;2023-03-25T09:59:46;18.10;99.90
59961;DHT22;55902;-37.980;-63.602;2023-03-25T10:05:37;18.10;99.90
59961;DHT22;55902;-37.980;-63.602;2023-03-25T10:08:15;18.10;99.90
59961;DHT22;55902;-37.980;-63.602;2023-03-25T10:11:05;18.00;99.90
59961;DHT22;55902;-37.980;-63.602;2023-03-25T10:19:45;17.80;99.90
59961;DHT22;55902;-37.980;-63.602;2023-03-25T10:25:27;17.70;99.90
59961;DHT22;55902;-37.980;-63.602;2023-03-25T10:27:56;17.70;99.90
59961;DHT22;55902;-37.980;-63.602;2023-03-25T10:30:29;17.60;99.90
59961;DHT22;55902;-37.980;-63.602;2023-03-25T10:33:13;17.60;99.90
59961;DHT22;55902;-37.980;-63.602;2023-03-25T10:35:46;17.60;99.90
59961;DHT22;55902;-37.980;-63.602;2023-03-25T10:38:22;17.50;99.90
59961;DHT22;55902;-37.980;-63.602;2023-03-25T10:41:06;17.40;99.90
59961;DHT22;55902;-37.980;-63.602;2023-03-25T10:43:41;17.40;99.90
59961;DHT22;55902;-37.980;-63.602;2023-03-25T10:46:31;17.40;99.90
59961;DHT22;55902;-37.980;-63.602;2023-03-25T10:49:00;17.40;99.90
59961;DHT22;55902;-37.980;-63.602;2023-03-25T10:51:36;17.30;99.90
59961;DHT22;55902;-37.980;-63.602;2023-03-25T10:54:03;17.30;99.90
59961;DHT22;55902;-37.980;-63.602;2023-03-25T10:56:35;17.40;99.90
59961;DHT22;55902;-37.980;-63.602;2023-03-25T10:59:35;17.40;99.90
59961;DHT22;55902;-37.980;-63.602;2023-03-25T11:02:24;17.40;99.90
59961;DHT22;55902;-37.980;-63.602;2023-03-25T11:04:59;17.50;99.90
59961;DHT22;55902;-37.980;-63.602;2023-03-25T11:07:35;17.50;99.90
59961;DHT22;55902;-37.980;-63.602;2023-03-25T11:10:19;17.50;99.90
59961;DHT22;55902;-37.980;-63.602;2023-03-25T11:12:47;17.60;99.90
59961;DHT22;55902;-37.980;-63.602;2023-03-25T11:15:18;17.60;99.90
59961;DHT22;55902;-37.980;-63.602;2023-03-25T11:17:47;17.70;99.90
59961;DHT22;55902;-37.980;-63.602;2023-03-25T11:20:26;17.70;99.90
59961;DHT22;55902;-37.980;-63.602;2023-03-25T11:23:02;17.80;99.90
59961;DHT22;55902;-37.980;-63.602;2023-03-25T11:25:35;17.90;99.90
59961;DHT22;55902;-37.980;-63.602;2023-03-25T11:28:11;18.00;99.90
59961;DHT22;55902;-37.980;-63.602;2023-03-25T11:31:03;18.10;99.90
59961;DHT22;55902;-37.980;-63.602;2023-03-25T11:33:25;18.10;99.90
59961;DHT22;55902;-37.980;-63.602;2023-03-25T11:35:52;18.20;99.90
59961;DHT22;55902;-37.980;-63.602;2023-03-25T11:38:21;18.30;99.90
59961;DHT22;55902;-37.980;-63.602;2023-03-25T11:40:58;18.50;99.90
59961;DHT22;55902;-37.980;-63.602;2023-03-25T11:43:31;18.70;99.90
59961;DHT22;55902;-37.980;-63.602;2023-03-25T11:46:14;19.00;99.90
59961;DHT22;55902;-37.980;-63.602;2023-03-25T11:48:44;19.40;99.90
59961;DHT22;55902;-37.980;-63.602;2023-03-25T11:51:22;19.90;99.90
59961;DHT22;55902;-37.980;-63.602;2023-03-25T11:54:01;20.40;99.90
59961;DHT22;55902;-37.980;-63.602;2023-03-25T11:56:34;21.00;99.90
59961;DHT22;55902;-37.980;-63.602;2023-03-25T12:02:27;21.80;99.90
59961;DHT22;55902;-37.980;-63.602;2023-03-25T12:07:27;22.50;99.90
59961;DHT22;55902;-37.980;-63.602;2023-03-25T12:09:56;22.70;99.90
59961;DHT22;55902;-37.980;-63.602;2023-03-25T12:21:29;23.50;99.90
59961;DHT22;55902;-37.980;-63.602;2023-03-25T12:26:45;23.60;99.90
59961;DHT22;55902;-37.980;-63.602;2023-03-25T12:48:28;24.60;99.90
59961;DHT22;55902;-37.980;-63.602;2023-03-25T12:57:02;24.70;99.60
59961;DHT22;55902;-37.980;-63.602;2023-03-25T12:59:55;24.80;98.50
59961;DHT22;55902;-37.980;-63.602;2023-03-25T13:05:26;24.80;97.60
59961;DHT22;55902;-37.980;-63.602;2023-03-25T13:11:05;24.70;95.70
59961;DHT22;55902;-37.980;-63.602;2023-03-25T13:13:36;24.70;95.20
59961;DHT22;55902;-37.980;-63.602;2023-03-25T13:16:08;24.70;95.60
59961;DHT22;55902;-37.980;-63.602;2023-03-25T13:21:39;25.10;95.10
59961;DHT22;55902;-37.980;-63.602;2023-03-25T13:24:14;25.20;94.40
59961;DHT22;55902;-37.980;-63.602;2023-03-25T13:26:44;25.30;95.30
59961;DHT22;55902;-37.980;-63.602;2023-03-25T13:29:16;25.40;93.40
59961;DHT22;55902;-37.980;-63.602;2023-03-25T13:31:44;25.50;93.90
59961;DHT22;55902;-37.980;-63.602;2023-03-25T13:34:21;25.70;92.20
59961;DHT22;55902;-37.980;-63.602;2023-03-25T13:39:53;26.00;92.50
59961;DHT22;55902;-37.980;-63.602;2023-03-25T13:45:16;26.10;90.60
59961;DHT22;55902;-37.980;-63.602;2023-03-25T13:47:47;26.20;91.60
59961;DHT22;55902;-37.980;-63.602;2023-03-25T13:50:27;26.20;91.40
59961;DHT22;55902;-37.980;-63.602;2023-03-25T13:53:04;26.10;90.40
59961;DHT22;55902;-37.980;-63.602;2023-03-25T13:55:38;26.20;90.30
59961;DHT22;55902;-37.980;-63.602;2023-03-25T14:04:41;26.70;86.60
59961;DHT22;55902;-37.980;-63.602;2023-03-25T14:12:44;26.90;85.70
59961;DHT22;55902;-37.980;-63.602;2023-03-25T14:15:52;27.10;80.40
59961;DHT22;55902;-37.980;-63.602;2023-03-25T14:18:21;27.20;80.90
59961;DHT22;55902;-37.980;-63.602;2023-03-25T14:20:48;27.30;82.60
59961;DHT22;55902;-37.980;-63.602;2023-03-25T14:23:19;27.60;82.80
59961;DHT22;55902;-37.980;-63.602;2023-03-25T14:25:53;27.70;78.90
59961;DHT22;55902;-37.980;-63.602;2023-03-25T14:28:38;27.60;79.90
59961;DHT22;55902;-37.980;-63.602;2023-03-25T14:44:32;28.00;78.80
59961;DHT22;55902;-37.980;-63.602;2023-03-25T14:47:24;28.10;77.60
59961;DHT22;55902;-37.980;-63.602;2023-03-25T14:49:50;28.20;77.50
59961;DHT22;55902;-37.980;-63.602;2023-03-25T14:52:51;28.30;76.00
59961;DHT22;55902;-37.980;-63.602;2023-03-25T14:58:05;28.50;75.40
59961;DHT22;55902;-37.980;-63.602;2023-03-25T15:00:43;28.60;75.70
59961;DHT22;55902;-37.980;-63.602;2023-03-25T15:03:15;28.90;78.40
59961;DHT22;55902;-37.980;-63.602;2023-03-25T15:05:43;29.20;73.80
59961;DHT22;55902;-37.980;-63.602;2023-03-25T15:08:31;29.30;74.90
59961;DHT22;55902;-37.980;-63.602;2023-03-25T15:11:10;29.40;70.40
59961;DHT22;55902;-37.980;-63.602;2023-03-25T15:13:43;29.20;69.60
59961;DHT22;55902;-37.980;-63.602;2023-03-25T15:16:21;29.30;66.90
59961;DHT22;55902;-37.980;-63.602;2023-03-25T15:21:23;29.60;68.70
59961;DHT22;55902;-37.980;-63.602;2023-03-25T15:24:09;29.70;67.10
59961;DHT22;55902;-37.980;-63.602;2023-03-25T15:26:40;29.80;67.50
59961;DHT22;55902;-37.980;-63.602;2023-03-25T15:34:52;30.10;70.30
59961;DHT22;55902;-37.980;-63.602;2023-03-25T15:52:47;31.30;60.30
59961;DHT22;55902;-37.980;-63.602;2023-03-25T15:55:30;31.30;59.70
59961;DHT22;55902;-37.980;-63.602;2023-03-25T15:58:02;31.30;61.20
59961;DHT22;55902;-37.980;-63.602;2023-03-25T16:00:44;31.30;59.20
59961;DHT22;55902;-37.980;-63.602;2023-03-25T16:03:19;31.40;58.10
59961;DHT22;55902;-37.980;-63.602;2023-03-25T16:05:58;31.70;61.10
59961;DHT22;55902;-37.980;-63.602;2023-03-25T16:08:31;31.90;56.60
59961;DHT22;55902;-37.980;-63.602;2023-03-25T16:13:44;32.10;58.20
59961;DHT22;55902;-37.980;-63.602;2023-03-25T16:16:16;32.20;57.90
59961;DHT22;55902;-37.980;-63.602;2023-03-25T16:18:45;32.40;56.70
59961;DHT22;55902;-37.980;-63.602;2023-03-25T16:21:12;32.50;59.10
59961;DHT22;55902;-37.980;-63.602;2023-03-25T16:23:40;32.80;56.80
59961;DHT22;55902;-37.980;-63.602;2023-03-25T16:26:13;33.00;57.70
59961;DHT22;55902;-37.980;-63.602;2023-03-25T16:28:41;33.10;54.40
59961;DHT22;55902;-37.980;-63.602;2023-03-25T16:31:29;33.20;54.50
59961;DHT22;55902;-37.980;-63.602;2023-03-25T16:34:05;33.20;52.80
59961;DHT22;55902;-37.980;-63.602;2023-03-25T16:36:33;33.20;53.60
59961;DHT22;55902;-37.980;-63.602;2023-03-25T16:39:00;33.20;55.40
59961;DHT22;55902;-37.980;-63.602;2023-03-25T16:41:30;33.40;55.00
59961;DHT22;55902;-37.980;-63.602;2023-03-25T16:43:57;33.60;52.90
59961;DHT22;55902;-37.980;-63.602;2023-03-25T16:46:24;33.70;52.30
59961;DHT22;55902;-37.980;-63.602;2023-03-25T16:48:53;33.60;50.80
59961;DHT22;55902;-37.980;-63.602;2023-03-25T16:51:28;33.60;50.10
59961;DHT22;55902;-37.980;-63.602;2023-03-25T16:54:00;33.70;51.50
59961;DHT22;55902;-37.980;-63.602;2023-03-25T16:56:36;33.70;50.20
59961;DHT22;55902;-37.980;-63.602;2023-03-25T16:59:33;33.80;49.20
59961;DHT22;55902;-37.980;-63.602;2023-03-25T17:02:02;34.10;49.80
59961;DHT22;55902;-37.980;-63.602;2023-03-25T17:04:38;34.20;52.30
59961;DHT22;55902;-37.980;-63.602;2023-03-25T17:19:52;34.90;45.80
59961;DHT22;55902;-37.980;-63.602;2023-03-25T17:22:36;34.80;46.40
59961;DHT22;55902;-37.980;-63.602;2023-03-25T17:27:43;34.70;45.20
59961;DHT22;55902;-37.980;-63.602;2023-03-25T17:33:10;34.80;46.10
59961;DHT22;55902;-37.980;-63.602;2023-03-25T17:35:38;34.80;45.30
59961;DHT22;55902;-37.980;-63.602;2023-03-25T17:38:05;34.90;46.20
59961;DHT22;55902;-37.980;-63.602;2023-03-25T17:40:34;34.90;45.70
59961;DHT22;55902;-37.980;-63.602;2023-03-25T17:43:01;35.10;45.40
59961;DHT22;55902;-37.980;-63.602;2023-03-25T17:45:28;35.00;43.70
59961;DHT22;55902;-37.980;-63.602;2023-03-25T17:47:55;35.10;44.20
59961;DHT22;55902;-37.980;-63.602;2023-03-25T17:50:24;35.10;44.00
59961;DHT22;55902;-37.980;-63.602;2023-03-25T17:52:53;35.20;45.00
59961;DHT22;55902;-37.980;-63.602;2023-03-25T17:55:20;35.20;43.70
59961;DHT22;55902;-37.980;-63.602;2023-03-25T17:57:47;35.30;42.40
59961;DHT22;55902;-37.980;-63.602;2023-03-25T18:00:16;35.50;45.40
59961;DHT22;55902;-37.980;-63.602;2023-03-25T18:02:47;35.60;44.70
59961;DHT22;55902;-37.980;-63.602;2023-03-25T18:05:14;35.70;43.10
59961;DHT22;55902;-37.980;-63.602;2023-03-25T18:07:41;35.90;44.10
59961;DHT22;55902;-37.980;-63.602;2023-03-25T18:10:17;36.00;44.20
59961;DHT22;55902;-37.980;-63.602;2023-03-25T18:12:44;36.10;42.00
59961;DHT22;55902;-37.980;-63.602;2023-03-25T18:15:12;36.10;44.40
59961;DHT22;55902;-37.980;-63.602;2023-03-25T18:17:39;36.30;42.40
59961;DHT22;55902;-37.980;-63.602;2023-03-25T18:32:46;36.00;42.20
59961;DHT22;55902;-37.980;-63.602;2023-03-25T18:35:14;36.00;41.30
59961;DHT22;55902;-37.980;-63.602;2023-03-25T18:37:41;35.80;40.80
59961;DHT22;55902;-37.980;-63.602;2023-03-25T18:40:22;36.00;43.10
59961;DHT22;55902;-37.980;-63.602;2023-03-25T18:42:50;36.10;42.10
59961;DHT22;55902;-37.980;-63.602;2023-03-25T18:45:18;36.20;41.70
59961;DHT22;55902;-37.980;-63.602;2023-03-25T18:47:46;36.20;42.70
59961;DHT22;55902;-37.980;-63.602;2023-03-25T18:50:32;36.30;42.20
59961;DHT22;55902;-37.980;-63.602;2023-03-25T18:53:00;36.40;41.70
59961;DHT22;55902;-37.980;-63.602;2023-03-25T18:55:28;36.60;41.40
59961;DHT22;55902;-37.980;-63.602;2023-03-25T18:57:56;36.70;41.80
59961;DHT22;55902;-37.980;-63.602;2023-03-25T19:00:35;36.50;39.70
59961;DHT22;55902;-37.980;-63.602;2023-03-25T19:03:02;36.30;41.70
59961;DHT22;55902;-37.980;-63.602;2023-03-25T19:05:30;36.20;41.70
59961;DHT22;55902;-37.980;-63.602;2023-03-25T19:07:57;36.10;41.20
59961;DHT22;55902;-37.980;-63.602;2023-03-25T19:10:30;36.00;42.40
59961;DHT22;55902;-37.980;-63.602;2023-03-25T19:12:57;35.80;41.90
59961;DHT22;55902;-37.980;-63.602;2023-03-25T19:15:26;35.00;42.20
59961;DHT22;55902;-37.980;-63.602;2023-03-25T19:17:55;34.50;43.50
59961;DHT22;55902;-37.980;-63.602;2023-03-25T19:20:30;33.80;43.40